Time;durP1;ratioP1;P1;durP2;ratioP2;P2;SDS_P1;SDS_P2;PMS_P1;PMS_P2;Temp;Humidity;BMP_temperature;BMP_pressure;BME280_temperature;BME280_humidity;BME280_pressure;Samples;Min_cycle;Max_cycle;Signal;HPM_P1;HPM_P2
2023/10/04 00:01:21;;;;;;;2.20;2.00;;;24.70;65.80;;;;;;5124188;27;20478;-69
2023/10/04 00:03:50;;;;;;;1.77;1.67;;;24.70;66.10;;;;;;5109860;28;20539;-69
2023/10/04 00:06:19;;;;;;;2.13;1.90;;;24.70;66.40;;;;;;5110087;28;20544;-69
2023/10/04 00:08:48;;;;;;;3.57;2.37;;;24.70;66.30;;;;;;5112682;28;20431;-69
2023/10/04 00:11:16;;;;;;;2.27;2.07;;;24.70;66.10;;;;;;5111705;28;20447;-69
2023/10/04 00:13:46;;;;;;;2.83;2.17;;;24.70;65.70;;;;;;5111134;28;20449;-69
2023/10/04 00:16:14;;;;;;;2.60;1.90;;;24.70;65.90;;;;;;5105999;28;20516;-69
2023/10/04 00:18:44;;;;;;;1.93;1.73;;;24.70;66.10;;;;;;5111686;28;20433;-69
2023/10/04 00:21:13;;;;;;;2.60;2.20;;;24.60;66.30;;;;;;5104791;28;20873;-69
2023/10/04 00:23:41;;;;;;;2.17;1.80;;;24.70;66.40;;;;;;5100908;28;20556;-69
2023/10/04 00:26:10;;;;;;;1.80;1.50;;;24.70;66.30;;;;;;5108417;28;20916;-69
2023/10/04 00:28:39;;;;;;;3.20;2.33;;;24.60;66.20;;;;;;5104686;27;20458;-70
2023/10/04 00:31:07;;;;;;;2.93;2.20;;;24.70;65.40;;;;;;5112762;27;20467;-69
2023/10/04 00:33:38;;;;;;;4.90;2.67;;;24.60;65.60;;;;;;5095834;28;20457;-69
2023/10/04 00:36:08;;;;;;;2.30;1.77;;;24.60;66.20;;;;;;5111831;28;20468;-69
2023/10/04 00:38:37;;;;;;;2.30;2.00;;;24.60;66.30;;;;;;5111813;28;20460;-69
2023/10/04 00:41:11;;;;;;;2.13;2.00;;;24.60;66.30;;;;;;5111487;28;20441;-69
2023/10/04 00:43:50;;;;;;;2.33;2.13;;;24.60;66.30;;;;;;5120554;27;20543;-69
2023/10/04 00:46:23;;;;;;;3.70;1.90;;;24.60;66.10;;;;;;5092553;28;20467;-69
2023/10/04 00:48:54;;;;;;;4.30;2.00;;;24.60;66.20;;;;;;5087916;28;20486;-69
2023/10/04 00:51:26;;;;;;;2.90;2.40;;;24.60;66.20;;;;;;5094620;28;20550;-69
2023/10/04 00:53:55;;;;;;;2.30;2.00;;;24.60;65.70;;;;;;5108429;27;20574;-69
2023/10/04 00:56:25;;;;;;;2.40;1.80;;;24.60;66.10;;;;;;5112866;27;20525;-69
2023/10/04 00:58:56;;;;;;;2.07;1.53;;;24.60;66.10;;;;;;5113646;27;20438;-69
2023/10/04 01:01:24;;;;;;;1.70;1.60;;;24.60;66.20;;;;;;5112964;27;20456;-69
2023/10/04 01:03:52;;;;;;;3.00;1.67;;;24.60;66.20;;;;;;5107454;28;20545;-69
2023/10/04 01:06:21;;;;;;;3.03;2.23;;;24.60;66.20;;;;;;5097664;28;20479;-69
2023/10/04 01:08:51;;;;;;;2.90;2.10;;;24.60;66.20;;;;;;5100840;28;20464;-69
2023/10/04 01:11:20;;;;;;;2.37;1.80;;;24.60;66.30;;;;;;5103617;28;20855;-69
2023/10/04 01:13:52;;;;;;;2.13;1.90;;;24.60;66.20;;;;;;5096755;28;20541;-69
2023/10/04 01:16:23;;;;;;;2.40;1.70;;;24.60;66.20;;;;;;5090667;28;20469;-69
2023/10/04 01:18:52;;;;;;;2.40;1.67;;;24.60;66.20;;;;;;5105787;28;20554;-69
2023/10/04 01:21:20;;;;;;;1.60;1.40;;;24.50;66.20;;;;;;5096359;28;20467;-69
2023/10/04 01:23:50;;;;;;;2.00;1.50;;;24.50;66.20;;;;;;5107997;28;20468;-69
2023/10/04 01:26:25;;;;;;;2.60;2.00;;;24.50;66.20;;;;;;5095918;28;20444;-69
2023/10/04 01:28:55;;;;;;;1.87;1.50;;;24.50;66.20;;;;;;5083443;28;20454;-69
2023/10/04 01:31:25;;;;;;;2.10;1.87;;;24.50;66.10;;;;;;5104705;28;20506;-69
2023/10/04 01:33:53;;;;;;;1.70;1.50;;;24.50;66.10;;;;;;5078647;28;20453;-69
2023/10/04 01:36:23;;;;;;;2.50;1.87;;;24.50;66.10;;;;;;5108584;28;20469;-69
2023/10/04 01:38:53;;;;;;;2.30;2.10;;;24.50;66.00;;;;;;5116386;27;20463;-69
2023/10/04 01:41:22;;;;;;;2.47;1.63;;;24.50;65.90;;;;;;5117472;27;20430;-69
2023/10/04 01:43:51;;;;;;;3.20;1.83;;;24.50;65.80;;;;;;5118642;27;20460;-69
2023/10/04 01:46:20;;;;;;;2.63;1.90;;;24.50;65.90;;;;;;5093700;28;20424;-69
2023/10/04 01:48:50;;;;;;;3.30;1.80;;;24.40;66.10;;;;;;5114189;28;20426;-69
2023/10/04 01:51:18;;;;;;;2.00;1.77;;;24.40;66.20;;;;;;5096394;28;20526;-69
2023/10/04 01:53:46;;;;;;;1.90;1.53;;;24.40;66.20;;;;;;5099457;27;20455;-69
2023/10/04 01:56:17;;;;;;;2.37;1.57;;;24.40;66.10;;;;;;5112845;27;20468;-69
2023/10/04 01:58:48;;;;;;;1.53;1.43;;;24.40;66.10;;;;;;5086441;28;20459;-69
2023/10/04 02:01:16;;;;;;;1.70;1.60;;;24.40;66.00;;;;;;5096976;28;20512;-69
2023/10/04 02:03:45;;;;;;;1.50;1.40;;;24.40;66.00;;;;;;5103814;28;20455;-69
2023/10/04 02:06:14;;;;;;;1.80;1.70;;;24.40;66.10;;;;;;5103670;28;20500;-69
2023/10/04 02:08:44;;;;;;;1.37;1.27;;;24.40;66.10;;;;;;5104730;27;20452;-69
2023/10/04 02:11:13;;;;;;;3.20;1.43;;;24.40;66.10;;;;;;5100668;28;20440;-68
2023/10/04 02:13:42;;;;;;;3.40;2.20;;;24.40;66.10;;;;;;5091820;28;20460;-69
2023/10/04 02:16:18;;;;;;;3.60;1.90;;;24.40;66.10;;;;;;5095470;28;20462;-69
2023/10/04 02:18:48;;;;;;;2.07;1.37;;;24.40;66.10;;;;;;5111211;28;20868;-69
2023/10/04 02:21:18;;;;;;;1.90;1.50;;;24.40;66.10;;;;;;5095761;28;20449;-69
2023/10/04 02:23:46;;;;;;;1.80;1.50;;;24.40;66.00;;;;;;5121669;27;20458;-69
2023/10/04 02:26:14;;;;;;;2.33;1.70;;;24.40;66.00;;;;;;5134724;27;20469;-69
2023/10/04 02:28:45;;;;;;;1.90;1.50;;;24.30;65.90;;;;;;5115626;27;20433;-68
2023/10/04 02:31:14;;;;;;;1.77;1.67;;;24.40;66.10;;;;;;5111563;28;20498;-69
2023/10/04 02:33:43;;;;;;;1.60;1.40;;;24.30;65.80;;;;;;5087271;28;20448;-69
2023/10/04 02:36:11;;;;;;;1.77;1.40;;;24.30;66.00;;;;;;5115168;27;20560;-69
2023/10/04 02:38:40;;;;;;;2.40;1.60;;;24.30;66.00;;;;;;5129299;27;20454;-69
2023/10/04 02:41:10;;;;;;;1.67;1.57;;;24.30;65.20;;;;;;5109518;28;20451;-69
2023/10/04 02:43:38;;;;;;;1.90;1.57;;;24.30;65.70;;;;;;5114202;28;20463;-69
2023/10/04 02:46:10;;;;;;;1.63;1.20;;;24.20;65.00;;;;;;5087776;28;20449;-69
2023/10/04 02:48:41;;;;;;;3.07;1.40;;;24.20;65.70;;;;;;5105631;28;20475;-69
2023/10/04 02:51:13;;;;;;;1.97;1.57;;;24.20;65.90;;;;;;5086257;27;21065;-69
2023/10/04 02:53:41;;;;;;;2.10;1.80;;;24.20;66.00;;;;;;5108026;28;20441;-69
2023/10/04 02:56:11;;;;;;;1.83;1.60;;;24.20;65.30;;;;;;5095117;28;20468;-69
2023/10/04 02:58:43;;;;;;;1.67;1.40;;;24.20;64.70;;;;;;5095788;28;20436;-69
2023/10/04 03:01:22;;;;;;;1.43;1.30;;;24.20;64.40;;;;;;5094300;28;20459;-69
2023/10/04 03:03:53;;;;;;;1.60;1.50;;;24.10;65.00;;;;;;5095217;28;20477;-69
2023/10/04 03:06:25;;;;;;;1.53;1.20;;;24.10;65.70;;;;;;5099025;27;20452;-69
2023/10/04 03:08:56;;;;;;;2.30;1.50;;;24.20;65.90;;;;;;5095188;28;20586;-69
2023/10/04 03:11:27;;;;;;;1.67;1.43;;;24.20;66.00;;;;;;5090743;28;20549;-69
2023/10/04 03:13:59;;;;;;;2.23;2.00;;;24.20;65.90;;;;;;5110122;28;20489;-69
2023/10/04 03:16:29;;;;;;;1.30;1.20;;;24.20;65.90;;;;;;5085554;28;20465;-69
2023/10/04 03:18:58;;;;;;;1.80;1.57;;;24.20;65.80;;;;;;5074641;28;20439;-69
2023/10/04 03:21:30;;;;;;;1.27;1.10;;;24.20;65.60;;;;;;5096823;27;20878;-69
2023/10/04 03:24:00;;;;;;;2.00;1.67;;;24.20;65.20;;;;;;5107576;27;20449;-69
2023/10/04 03:26:29;;;;;;;1.40;1.20;;;24.10;64.70;;;;;;5094367;28;20436;-69
2023/10/04 03:29:00;;;;;;;1.60;1.50;;;24.10;65.10;;;;;;5088558;28;20445;-69
2023/10/04 03:31:34;;;;;;;1.73;1.30;;;24.10;65.50;;;;;;5103576;28;20486;-68
2023/10/04 03:34:04;;;;;;;1.37;1.20;;;24.10;65.70;;;;;;5092712;28;20495;-69
2023/10/04 03:36:34;;;;;;;1.50;1.40;;;24.10;65.70;;;;;;5081300;28;20879;-69
2023/10/04 03:39:10;;;;;;;1.53;1.37;;;24.10;65.60;;;;;;5079323;28;20995;-69
2023/10/04 03:41:42;;;;;;;1.93;1.70;;;24.10;65.70;;;;;;5086553;28;21108;-69
2023/10/04 03:44:11;;;;;;;1.87;1.40;;;24.10;65.50;;;;;;5100912;28;20545;-69
2023/10/04 03:46:43;;;;;;;1.70;1.60;;;24.10;64.70;;;;;;5099010;28;20477;-69
2023/10/04 03:49:12;;;;;;;1.67;1.57;;;24.10;64.80;;;;;;5089719;28;20895;-69
2023/10/04 03:51:41;;;;;;;2.23;1.40;;;24.00;65.30;;;;;;5098198;28;20456;-69
2023/10/04 03:54:12;;;;;;;1.80;1.50;;;24.00;65.50;;;;;;5090001;28;20459;-69
2023/10/04 03:56:43;;;;;;;2.37;1.77;;;24.00;65.40;;;;;;5084321;28;20493;-69
2023/10/04 03:59:11;;;;;;;1.50;1.40;;;24.10;65.50;;;;;;5106959;28;20453;-69
2023/10/04 04:01:41;;;;;;;1.80;1.70;;;24.10;64.90;;;;;;5076175;28;20453;-69
2023/10/04 04:04:17;;;;;;;2.63;1.87;;;24.00;65.00;;;;;;5078133;28;20454;-68
2023/10/04 04:06:46;;;;;;;1.33;1.23;;;24.00;65.60;;;;;;5081096;28;20453;-69
2023/10/04 04:09:15;;;;;;;1.50;1.40;;;24.00;65.00;;;;;;5094041;28;20461;-69
2023/10/04 04:11:43;;;;;;;1.50;1.40;;;24.00;64.80;;;;;;5112145;28;20490;-69
2023/10/04 04:14:12;;;;;;;1.40;1.20;;;24.00;65.20;;;;;;5104778;28;20454;-69
2023/10/04 04:16:43;;;;;;;1.70;1.27;;;24.00;65.20;;;;;;5092823;28;20472;-69
2023/10/04 04:19:12;;;;;;;1.53;1.40;;;24.00;65.20;;;;;;5108033;27;20454;-69
2023/10/04 04:21:42;;;;;;;1.53;1.20;;;24.00;65.20;;;;;;5090836;28;20810;-69
2023/10/04 04:24:10;;;;;;;1.70;1.40;;;24.00;65.10;;;;;;5092873;28;20497;-69
2023/10/04 04:26:41;;;;;;;1.97;1.60;;;24.00;65.40;;;;;;5085292;28;20453;-69
2023/10/04 04:29:11;;;;;;;1.73;1.30;;;24.00;65.10;;;;;;5093474;28;20471;-69
2023/10/04 04:31:43;;;;;;;1.57;1.40;;;24.00;65.20;;;;;;5079627;28;21066;-69
2023/10/04 04:34:15;;;;;;;1.50;1.40;;;23.90;65.20;;;;;;5093550;28;20454;-68
2023/10/04 04:36:46;;;;;;;2.30;1.50;;;24.00;65.20;;;;;;5088194;28;20472;-69
2023/10/04 04:39:18;;;;;;;1.70;1.50;;;24.00;65.10;;;;;;5090354;28;20474;-69
2023/10/04 04:41:51;;;;;;;2.07;1.87;;;24.00;65.40;;;;;;5093182;28;20452;-69
2023/10/04 04:44:38;;;;;;;1.20;1.10;;;24.00;65.40;;;;;;5082736;28;20543;-69
2023/10/04 04:47:10;;;;;;;1.70;1.60;;;24.00;65.40;;;;;;5073403;28;21093;-68
2023/10/04 04:49:38;;;;;;;3.00;1.60;;;24.00;65.40;;;;;;5093125;28;20956;-69
2023/10/04 04:52:09;;;;;;;1.90;1.70;;;24.00;65.10;;;;;;5098603;28;20555;-69
2023/10/04 04:54:37;;;;;;;1.47;1.37;;;24.00;65.10;;;;;;5093954;28;20545;-69
2023/10/04 04:57:07;;;;;;;1.27;1.17;;;23.90;65.20;;;;;;5075877;28;20507;-67
2023/10/04 04:59:35;;;;;;;1.30;1.20;;;23.90;64.80;;;;;;5094388;28;20490;-67
2023/10/04 05:02:05;;;;;;;1.23;1.13;;;23.90;64.60;;;;;;5095632;28;20549;-67
2023/10/04 05:04:36;;;;;;;2.07;1.90;;;23.90;64.90;;;;;;5074300;28;20452;-67
2023/10/04 05:07:06;;;;;;;1.50;1.40;;;23.90;64.60;;;;;;5095996;28;20508;-68
2023/10/04 05:09:35;;;;;;;1.70;1.50;;;23.90;64.60;;;;;;5093356;28;21775;-68
2023/10/04 05:12:04;;;;;;;1.53;1.43;;;23.80;64.60;;;;;;5092438;28;20450;-67
2023/10/04 05:14:32;;;;;;;1.93;1.50;;;23.80;64.90;;;;;;5093140;28;20455;-68
2023/10/04 05:17:00;;;;;;;3.40;1.60;;;23.80;64.60;;;;;;5101011;28;20457;-68
2023/10/04 05:19:29;;;;;;;2.27;1.73;;;23.80;65.40;;;;;;5100082;28;20936;-67
2023/10/04 05:21:58;;;;;;;2.77;2.00;;;23.80;64.80;;;;;;5098001;28;20459;-67
2023/10/04 05:24:27;;;;;;;2.37;1.60;;;23.80;64.60;;;;;;5097941;28;20932;-67
2023/10/04 05:26:55;;;;;;;2.57;1.83;;;23.80;64.70;;;;;;5100747;28;20456;-68
2023/10/04 05:29:23;;;;;;;2.70;1.73;;;23.70;64.90;;;;;;5091381;28;20458;-67
2023/10/04 05:31:51;;;;;;;1.50;1.40;;;23.70;65.70;;;;;;5063005;28;1135176;-67
2023/10/04 05:34:20;;;;;;;1.73;1.60;;;23.80;65.30;;;;;;5106412;28;20449;-67
2023/10/04 05:36:48;;;;;;;2.03;1.70;;;23.80;65.40;;;;;;5099542;28;21030;-67
2023/10/04 05:39:17;;;;;;;2.37;2.00;;;23.80;65.30;;;;;;5118132;28;20476;-67
2023/10/04 05:41:46;;;;;;;2.67;1.80;;;23.70;64.80;;;;;;5093565;28;20568;-68
2023/10/04 05:44:14;;;;;;;2.70;1.60;;;23.70;65.20;;;;;;5101794;28;20495;-67
2023/10/04 05:46:44;;;;;;;1.70;1.50;;;23.70;65.60;;;;;;5114208;28;20448;-67
2023/10/04 05:49:13;;;;;;;2.10;1.40;;;23.70;65.40;;;;;;5100980;28;21041;-67
2023/10/04 05:51:41;;;;;;;1.43;1.23;;;23.70;65.60;;;;;;5107860;28;20485;-67
2023/10/04 05:54:10;;;;;;;3.37;1.80;;;23.70;65.70;;;;;;5110704;28;20947;-67
2023/10/04 05:56:40;;;;;;;3.50;1.60;;;23.80;65.70;;;;;;5110416;28;20457;-67
2023/10/04 05:59:12;;;;;;;1.40;1.30;;;23.80;65.70;;;;;;5107267;28;20483;-68
2023/10/04 06:01:41;;;;;;;2.37;1.80;;;23.80;65.70;;;;;;5103575;28;20463;-67
2023/10/04 06:04:10;;;;;;;2.13;1.73;;;23.80;65.20;;;;;;5109306;28;20494;-67
2023/10/04 06:06:44;;;;;;;2.30;1.57;;;23.80;65.70;;;;;;5098762;28;20513;-68
2023/10/04 06:09:26;;;;;;;2.20;1.40;;;23.80;65.10;;;;;;5108055;28;20433;-67
2023/10/04 06:11:56;;;;;;;3.00;1.90;;;23.80;65.20;;;;;;5108435;28;21402;-67
2023/10/04 06:14:26;;;;;;;3.53;1.97;;;23.70;64.80;;;;;;5106968;28;20437;-67
2023/10/04 06:16:55;;;;;;;2.10;1.80;;;23.70;64.70;;;;;;5094770;28;20514;-67
2023/10/04 06:19:25;;;;;;;4.63;1.93;;;23.70;65.10;;;;;;5101620;28;20467;-67
2023/10/04 06:22:02;;;;;;;3.83;1.73;;;23.70;64.90;;;;;;5100747;28;20542;-68
2023/10/04 06:24:30;;;;;;;3.00;1.90;;;23.70;64.70;;;;;;5091537;28;20461;-67
2023/10/04 06:26:59;;;;;;;2.50;1.70;;;23.70;64.70;;;;;;5100069;28;20464;-67
2023/10/04 06:29:28;;;;;;;2.33;1.80;;;23.70;65.20;;;;;;5109613;28;20459;-67
2023/10/04 06:31:56;;;;;;;2.50;1.43;;;23.70;65.20;;;;;;5105207;28;20479;-67
2023/10/04 06:34:24;;;;;;;2.60;1.93;;;23.70;65.60;;;;;;5109594;28;20461;-67
2023/10/04 06:36:52;;;;;;;1.93;1.47;;;23.70;65.40;;;;;;5106027;28;20485;-67
2023/10/04 06:39:21;;;;;;;2.43;1.73;;;23.70;64.90;;;;;;5109875;28;20475;-67
2023/10/04 06:41:49;;;;;;;2.20;1.57;;;23.70;64.80;;;;;;5108166;28;20957;-67
2023/10/04 06:44:18;;;;;;;4.10;1.80;;;23.70;65.10;;;;;;5106573;28;20955;-67
2023/10/04 06:46:47;;;;;;;2.43;2.10;;;23.70;64.90;;;;;;5108750;28;20456;-67
2023/10/04 06:49:15;;;;;;;5.70;2.10;;;23.70;64.90;;;;;;5102103;28;20489;-67
2023/10/04 06:51:43;;;;;;;5.40;2.23;;;23.70;65.30;;;;;;5107587;27;20457;-67
2023/10/04 06:54:11;;;;;;;3.00;2.03;;;23.70;64.90;;;;;;5109775;28;20945;-67
2023/10/04 06:56:40;;;;;;;2.70;1.77;;;23.70;65.00;;;;;;5104755;28;20455;-68
2023/10/04 06:59:08;;;;;;;3.10;1.67;;;23.70;64.80;;;;;;5109897;28;20468;-68
2023/10/04 07:01:37;;;;;;;2.17;1.70;;;23.70;65.60;;;;;;5104383;28;20449;-67
2023/10/04 07:04:06;;;;;;;4.33;1.90;;;23.80;65.60;;;;;;5108890;28;20463;-67
2023/10/04 07:06:34;;;;;;;2.60;1.50;;;23.80;65.40;;;;;;5102007;28;20463;-67
2023/10/04 07:09:02;;;;;;;3.33;2.00;;;23.80;65.40;;;;;;5105638;27;20448;-67
2023/10/04 07:11:33;;;;;;;4.00;2.03;;;23.80;65.40;;;;;;5096697;28;20513;-68
2023/10/04 07:14:01;;;;;;;3.17;1.70;;;23.80;65.20;;;;;;5102846;28;20817;-67
2023/10/04 07:16:29;;;;;;;4.13;1.67;;;23.90;65.40;;;;;;5105337;28;20452;-67
2023/10/04 07:19:03;;;;;;;3.93;2.20;;;23.80;64.90;;;;;;5103519;28;20805;-67
2023/10/04 07:21:31;;;;;;;2.30;1.67;;;23.80;65.40;;;;;;5097511;28;20944;-67
2023/10/04 07:24:00;;;;;;;2.30;2.10;;;23.90;65.20;;;;;;5105068;28;20516;-67
2023/10/04 07:26:34;;;;;;;3.20;2.07;;;23.90;64.80;;;;;;5104575;28;20490;-67
2023/10/04 07:29:02;;;;;;;2.50;1.90;;;23.90;65.40;;;;;;5093059;28;20541;-69
2023/10/04 07:31:34;;;;;;;2.67;1.70;;;23.90;65.10;;;;;;5104172;28;20504;-67
2023/10/04 07:34:04;;;;;;;2.90;2.20;;;23.90;65.20;;;;;;5112113;28;20439;-67
2023/10/04 07:36:33;;;;;;;2.10;1.83;;;23.90;65.10;;;;;;5113262;28;20809;-67
2023/10/04 07:39:02;;;;;;;2.33;2.13;;;23.90;64.80;;;;;;5112943;28;20460;-67
2023/10/04 07:41:31;;;;;;;3.10;2.70;;;23.90;64.80;;;;;;5112753;28;20947;-67
2023/10/04 07:43:59;;;;;;;3.30;2.23;;;23.90;64.90;;;;;;5113221;28;20516;-67
2023/10/04 07:46:27;;;;;;;2.57;2.00;;;23.90;64.90;;;;;;5107803;28;20440;-67
2023/10/04 07:48:55;;;;;;;3.10;2.40;;;23.90;64.90;;;;;;5094844;28;20442;-67
2023/10/04 07:51:25;;;;;;;2.63;2.33;;;23.90;65.20;;;;;;5094983;28;20457;-67
2023/10/04 07:53:53;;;;;;;3.47;2.03;;;23.90;64.60;;;;;;5094506;28;20472;-67
2023/10/04 07:56:22;;;;;;;2.30;2.07;;;23.90;64.80;;;;;;5095089;28;20484;-67
2023/10/04 07:58:50;;;;;;;2.40;2.20;;;23.90;64.60;;;;;;5112870;28;20939;-67
2023/10/04 08:01:18;;;;;;;3.73;1.80;;;23.90;64.90;;;;;;5102279;28;20525;-67
2023/10/04 08:03:47;;;;;;;2.93;2.07;;;23.90;64.90;;;;;;5094254;27;21333;-75
2023/10/04 08:06:16;;;;;;;2.73;2.27;;;23.90;65.40;;;;;;5093150;28;20513;-75
2023/10/04 08:08:45;;;;;;;2.23;1.97;;;23.90;65.50;;;;;;5102198;28;20948;-74
2023/10/04 08:11:14;;;;;;;2.20;2.00;;;24.00;65.70;;;;;;5100482;28;20517;-75
2023/10/04 08:13:42;;;;;;;2.40;1.97;;;24.00;65.80;;;;;;5105611;28;20472;-75
2023/10/04 08:16:11;;;;;;;4.83;1.87;;;24.00;65.80;;;;;;5104107;28;20946;-75
2023/10/04 08:18:39;;;;;;;2.60;1.90;;;24.00;65.80;;;;;;5103356;28;20468;-74
2023/10/04 08:21:07;;;;;;;2.30;2.10;;;24.10;65.80;;;;;;5103031;28;20565;-75
2023/10/04 08:23:36;;;;;;;2.53;2.30;;;24.10;65.80;;;;;;5101649;27;20930;-75
2023/10/04 08:26:15;;;;;;;3.50;2.00;;;24.10;65.80;;;;;;5084640;28;20826;-75
2023/10/04 08:28:44;;;;;;;2.33;2.13;;;24.20;65.70;;;;;;5105517;28;20453;-74
2023/10/04 08:31:13;;;;;;;2.17;1.80;;;24.20;65.70;;;;;;5102185;27;20491;-74
2023/10/04 08:33:43;;;;;;;2.53;2.20;;;24.20;65.70;;;;;;5103682;28;21018;-74
2023/10/04 08:36:15;;;;;;;1.97;1.77;;;24.30;65.50;;;;;;5107818;28;20549;-73
2023/10/04 08:38:45;;;;;;;1.70;1.60;;;24.30;65.60;;;;;;5104344;28;20458;-75
2023/10/04 08:41:17;;;;;;;4.27;2.17;;;24.30;65.50;;;;;;5105236;28;20462;-74
2023/10/04 08:43:45;;;;;;;2.10;1.77;;;24.40;65.40;;;;;;5105532;28;20461;-75
2023/10/04 08:46:18;;;;;;;2.83;2.07;;;24.40;65.40;;;;;;5105357;28;20936;-73
2023/10/04 08:48:53;;;;;;;1.87;1.77;;;24.40;65.30;;;;;;5107892;28;20456;-74
2023/10/04 08:51:30;;;;;;;3.30;2.03;;;24.40;65.30;;;;;;5105912;28;20447;-75
2023/10/04 08:54:08;;;;;;;3.70;2.53;;;24.40;65.20;;;;;;5104853;28;20510;-73
2023/10/04 08:56:45;;;;;;;2.20;1.70;;;24.40;65.30;;;;;;5102162;28;20462;-75
2023/10/04 08:59:14;;;;;;;2.53;2.33;;;24.40;65.00;;;;;;5106036;28;20465;-75
2023/10/04 09:01:42;;;;;;;3.30;1.63;;;24.50;65.30;;;;;;5100894;28;20466;-74
2023/10/04 09:04:13;;;;;;;1.97;1.80;;;24.50;65.20;;;;;;5107427;28;20470;-73
2023/10/04 09:06:42;;;;;;;2.30;2.00;;;24.50;65.20;;;;;;5099453;28;20452;-75
2023/10/04 09:09:15;;;;;;;1.73;1.60;;;24.50;65.00;;;;;;5107874;28;20940;-75
2023/10/04 09:11:46;;;;;;;2.10;1.80;;;24.60;65.00;;;;;;5102895;28;20469;-73
2023/10/04 09:14:15;;;;;;;1.90;1.60;;;24.60;65.10;;;;;;5105316;28;20446;-74
2023/10/04 09:16:43;;;;;;;3.60;1.73;;;24.60;65.10;;;;;;5104257;28;20447;-74
2023/10/04 09:19:17;;;;;;;1.93;1.73;;;24.60;65.00;;;;;;5102576;28;20493;-75
2023/10/04 09:21:46;;;;;;;3.47;1.70;;;24.60;65.00;;;;;;5104630;28;20492;-74
2023/10/04 09:24:16;;;;;;;2.77;1.57;;;24.60;65.00;;;;;;5103570;28;20459;-75
2023/10/04 09:26:54;;;;;;;2.03;1.57;;;24.60;64.90;;;;;;5103021;28;20935;-75
2023/10/04 09:29:30;;;;;;;1.70;1.60;;;24.70;64.90;;;;;;5098119;28;20450;-75
2023/10/04 09:31:59;;;;;;;2.20;2.00;;;24.70;64.90;;;;;;5102607;28;20502;-74
2023/10/04 09:34:28;;;;;;;1.70;1.60;;;24.70;64.70;;;;;;5101416;28;20464;-75
2023/10/04 09:36:57;;;;;;;2.80;1.70;;;24.70;64.80;;;;;;5101585;28;20461;-74
2023/10/04 09:39:31;;;;;;;2.10;1.87;;;24.70;64.70;;;;;;5106117;28;20462;-75
2023/10/04 09:42:04;;;;;;;1.77;1.57;;;24.80;64.50;;;;;;5105946;28;20457;-75
2023/10/04 09:44:35;;;;;;;2.47;1.87;;;24.80;64.50;;;;;;5097696;28;20504;-74
2023/10/04 09:47:05;;;;;;;2.37;2.10;;;24.80;64.40;;;;;;5101749;28;20456;-74
2023/10/04 09:49:36;;;;;;;1.73;1.63;;;24.80;64.50;;;;;;5104789;28;20541;-75
2023/10/04 09:52:07;;;;;;;2.00;1.73;;;24.80;64.50;;;;;;5100542;28;20456;-75
2023/10/04 09:54:36;;;;;;;1.67;1.50;;;24.80;64.50;;;;;;5102644;28;20934;-75
2023/10/04 09:57:09;;;;;;;1.70;1.50;;;24.90;64.50;;;;;;5100771;28;21259;-76
2023/10/04 09:59:43;;;;;;;1.90;1.63;;;24.90;64.50;;;;;;5106710;28;21056;-75
2023/10/04 10:02:15;;;;;;;1.57;1.47;;;24.90;64.50;;;;;;5104193;28;20457;-74
2023/10/04 10:04:44;;;;;;;2.03;1.80;;;24.90;64.40;;;;;;5108663;28;20457;-74
2023/10/04 10:07:16;;;;;;;2.10;1.77;;;24.90;64.40;;;;;;5103320;28;20928;-75
2023/10/04 10:09:57;;;;;;;2.07;1.40;;;25.00;64.40;;;;;;5102682;28;20457;-74
2023/10/04 10:12:32;;;;;;;1.60;1.50;;;25.00;64.40;;;;;;5105430;27;20538;-74
2023/10/04 10:15:04;;;;;;;1.33;1.10;;;25.00;64.20;;;;;;5106172;28;21686;-74
2023/10/04 10:17:34;;;;;;;1.63;1.53;;;25.00;64.20;;;;;;5101396;28;20457;-75
2023/10/04 10:20:04;;;;;;;1.50;1.40;;;25.00;64.10;;;;;;5096418;28;20493;-75
2023/10/04 10:22:32;;;;;;;1.77;1.63;;;25.00;64.00;;;;;;5098880;28;20479;-74
2023/10/04 10:25:14;;;;;;;2.53;1.90;;;25.00;64.00;;;;;;5101058;28;20942;-74
2023/10/04 10:27:45;;;;;;;1.50;1.40;;;25.00;64.00;;;;;;5095221;28;20943;-74
2023/10/04 10:30:18;;;;;;;1.67;1.57;;;25.10;63.90;;;;;;5094052;28;20475;-75
2023/10/04 10:32:54;;;;;;;1.93;1.67;;;25.10;63.90;;;;;;5094808;28;20524;-75
2023/10/04 10:35:51;;;;;;;1.70;1.40;;;25.20;63.70;;;;;;5095895;28;20449;-75
2023/10/04 10:38:47;;;;;;;3.50;2.50;;;25.20;63.60;;;;;;5097749;28;21012;-75
2023/10/04 10:41:57;;;;;;;2.43;1.90;;;25.30;63.40;;;;;;5097453;28;20480;-75
2023/10/04 10:44:30;;;;;;;1.70;1.60;;;25.50;63.00;;;;;;5061298;28;20469;-75
2023/10/04 10:47:04;;;;;;;2.37;2.17;;;25.80;62.50;;;;;;5097798;28;20482;-75
2023/10/04 10:49:50;;;;;;;2.60;2.13;;;26.10;61.90;;;;;;5103547;28;20494;-75
2023/10/04 10:52:39;;;;;;;3.30;2.00;;;26.40;61.40;;;;;;5104784;27;20501;-75
2023/10/04 10:55:16;;;;;;;2.30;1.90;;;26.50;61.00;;;;;;5090037;27;20453;-75
2023/10/04 10:57:47;;;;;;;4.83;2.17;;;26.50;60.90;;;;;;5106018;28;20463;-74
2023/10/04 11:00:22;;;;;;;3.00;2.50;;;26.30;61.40;;;;;;5106317;27;21004;-75
2023/10/04 11:02:53;;;;;;;2.83;2.03;;;26.40;61.30;;;;;;5103588;28;20454;-74
2023/10/04 11:05:22;;;;;;;1.80;1.60;;;26.30;61.40;;;;;;5091858;28;20460;-75
2023/10/04 11:07:52;;;;;;;3.73;2.27;;;26.20;61.70;;;;;;5101500;27;20461;-75
2023/10/04 11:10:23;;;;;;;3.10;1.60;;;26.10;61.70;;;;;;5087598;28;20455;-75
2023/10/04 11:12:54;;;;;;;4.93;1.90;;;26.00;62.00;;;;;;5107368;27;20455;-76
2023/10/04 11:15:27;;;;;;;2.33;1.63;;;26.00;62.00;;;;;;5105742;27;20924;-75
2023/10/04 11:17:56;;;;;;;4.93;2.10;;;26.00;62.00;;;;;;5095970;27;20988;-75
2023/10/04 11:20:26;;;;;;;3.47;1.73;;;26.10;62.00;;;;;;5090561;28;20475;-68
2023/10/04 11:22:55;;;;;;;2.20;1.83;;;26.30;61.80;;;;;;5098859;28;20454;-68
2023/10/04 11:25:26;;;;;;;2.47;2.00;;;26.50;61.40;;;;;;5107482;28;20456;-67
2023/10/04 11:27:54;;;;;;;3.50;1.90;;;26.50;61.50;;;;;;5105658;28;20540;-67
2023/10/04 11:30:26;;;;;;;5.00;1.90;;;26.70;61.30;;;;;;5101635;28;20832;-68
2023/10/04 11:32:58;;;;;;;3.53;1.80;;;26.80;61.10;;;;;;5105047;28;20465;-67
2023/10/04 11:35:34;;;;;;;3.43;2.57;;;26.90;60.80;;;;;;5103443;28;20516;-68
2023/10/04 11:38:05;;;;;;;3.53;2.10;;;26.90;60.90;;;;;;5101635;28;20459;-69
2023/10/04 11:40:35;;;;;;;3.33;2.10;;;27.00;60.80;;;;;;5099881;28;20483;-69
2023/10/04 11:43:05;;;;;;;2.37;1.70;;;27.00;60.70;;;;;;5102207;28;20475;-67
2023/10/04 11:45:35;;;;;;;6.43;2.30;;;27.10;60.60;;;;;;5103486;28;20451;-68
2023/10/04 11:48:07;;;;;;;5.23;1.80;;;27.20;60.30;;;;;;5102941;28;20466;-68
2023/10/04 11:50:47;;;;;;;2.70;1.60;;;27.40;60.00;;;;;;5102993;28;20453;-68
2023/10/04 11:53:30;;;;;;;2.60;1.93;;;27.40;59.80;;;;;;5101936;28;20565;-68
2023/10/04 11:55:58;;;;;;;2.30;1.70;;;27.40;59.80;;;;;;5103556;28;20459;-69
2023/10/04 11:58:27;;;;;;;3.67;1.67;;;27.50;59.70;;;;;;5102759;28;20549;-69
2023/10/04 12:01:06;;;;;;;2.80;1.80;;;27.40;59.70;;;;;;5104954;28;20469;-69
2023/10/04 12:03:37;;;;;;;2.47;2.00;;;27.30;60.00;;;;;;5102975;28;20457;-70
2023/10/04 12:06:06;;;;;;;2.30;1.80;;;27.30;60.00;;;;;;5105981;28;20453;-68
2023/10/04 12:08:36;;;;;;;4.10;1.97;;;27.20;60.10;;;;;;5102371;28;20483;-68
2023/10/04 12:11:13;;;;;;;3.20;2.07;;;27.10;60.60;;;;;;5104221;28;20800;-70
2023/10/04 12:13:42;;;;;;;2.77;1.70;;;27.00;60.60;;;;;;5103012;28;20459;-68
2023/10/04 12:16:11;;;;;;;5.40;2.00;;;27.00;60.50;;;;;;5108269;28;20810;-68
2023/10/04 12:18:43;;;;;;;3.57;1.77;;;27.00;60.60;;;;;;5103718;28;20462;-68
2023/10/04 12:21:12;;;;;;;3.97;2.17;;;27.10;60.40;;;;;;5102690;28;20524;-68
2023/10/04 12:23:41;;;;;;;1.80;1.50;;;27.10;60.30;;;;;;5103101;28;20945;-68
2023/10/04 12:26:09;;;;;;;4.87;2.23;;;27.00;60.50;;;;;;5104516;28;20931;-68
2023/10/04 12:28:38;;;;;;;6.53;1.97;;;27.10;60.40;;;;;;5104570;28;20553;-68
2023/10/04 12:31:07;;;;;;;3.80;1.93;;;27.20;60.10;;;;;;5101480;28;20475;-68
2023/10/04 12:33:38;;;;;;;4.37;1.67;;;27.30;60.00;;;;;;5106127;28;20457;-67
2023/10/04 12:36:07;;;;;;;2.23;1.40;;;27.40;59.70;;;;;;5105196;28;20466;-68
2023/10/04 12:38:36;;;;;;;5.23;2.77;;;27.40;59.60;;;;;;5104199;28;20513;-68
2023/10/04 12:41:05;;;;;;;3.67;1.63;;;27.50;59.60;;;;;;5103047;28;20830;-67
2023/10/04 12:43:33;;;;;;;1.73;1.57;;;27.50;59.50;;;;;;5103829;28;20446;-67
2023/10/04 12:46:01;;;;;;;4.57;1.80;;;27.60;59.40;;;;;;5107187;28;20462;-68
2023/10/04 12:48:30;;;;;;;2.23;1.60;;;27.50;59.30;;;;;;5104350;28;20459;-68
2023/10/04 12:51:00;;;;;;;3.57;1.60;;;27.50;59.40;;;;;;5105873;28;20546;-68
2023/10/04 12:53:30;;;;;;;2.87;1.57;;;27.50;59.30;;;;;;5106700;28;20547;-68
2023/10/04 12:55:58;;;;;;;3.50;1.57;;;27.50;59.30;;;;;;5105419;28;20455;-68
2023/10/04 12:58:27;;;;;;;2.00;1.67;;;27.50;59.40;;;;;;5101157;28;20514;-67
2023/10/04 13:00:59;;;;;;;1.43;1.33;;;27.60;59.40;;;;;;5096160;28;20467;-67
2023/10/04 13:03:31;;;;;;;4.50;1.50;;;27.60;59.30;;;;;;5106990;28;20507;-67
2023/10/04 13:06:03;;;;;;;2.50;1.33;;;27.60;59.20;;;;;;5105062;28;20459;-67